sensor_id;sensor_type;location;lat;lon;timestamp;P1;durP1;ratioP1;P2;durP2;ratioP2
11763;SDS011;5939;56.522;14.950;2022-10-31T00:00:50;2.60;;;1.70;;
11763;SDS011;5939;56.522;14.950;2022-10-31T00:03:16;1.70;;;1.40;;
11763;SDS011;5939;56.522;14.950;2022-10-31T00:05:43;2.63;;;1.53;;
11763;SDS011;5939;56.522;14.950;2022-10-31T00:08:10;1.60;;;1.50;;
11763;SDS011;5939;56.522;14.950;2022-10-31T00:10:39;2.40;;;1.70;;
11763;SDS011;5939;56.522;14.950;2022-10-31T00:13:06;1.70;;;1.60;;
11763;SDS011;5939;56.522;14.950;2022-10-31T00:15:33;1.53;;;1.43;;
11763;SDS011;5939;56.522;14.950;2022-10-31T00:17:59;1.60;;;1.50;;
11763;SDS011;5939;56.522;14.950;2022-10-31T00:20:26;2.83;;;1.60;;
11763;SDS011;5939;56.522;14.950;2022-10-31T00:22:51;1.50;;;1.40;;
11763;SDS011;5939;56.522;14.950;2022-10-31T00:25:17;1.53;;;1.43;;
11763;SDS011;5939;56.522;14.950;2022-10-31T00:27:43;1.70;;;1.60;;
11763;SDS011;5939;56.522;14.950;2022-10-31T00:30:08;2.97;;;1.47;;
11763;SDS011;5939;56.522;14.950;2022-10-31T00:32:34;3.43;;;1.70;;
11763;SDS011;5939;56.522;14.950;2022-10-31T00:35:00;2.63;;;1.40;;
11763;SDS011;5939;56.522;14.950;2022-10-31T00:37:26;2.53;;;1.60;;
11763;SDS011;5939;56.522;14.950;2022-10-31T00:39:52;1.93;;;1.50;;
11763;SDS011;5939;56.522;14.950;2022-10-31T00:42:17;1.70;;;1.60;;
11763;SDS011;5939;56.522;14.950;2022-10-31T00:44:43;2.53;;;1.60;;
11763;SDS011;5939;56.522;14.950;2022-10-31T00:47:09;2.30;;;1.40;;
11763;SDS011;5939;56.522;14.950;2022-10-31T00:49:34;1.50;;;1.40;;
11763;SDS011;5939;56.522;14.950;2022-10-31T00:52:00;2.50;;;1.80;;
11763;SDS011;5939;56.522;14.950;2022-10-31T00:54:25;2.47;;;1.60;;
11763;SDS011;5939;56.522;14.950;2022-10-31T00:56:51;1.50;;;1.40;;
11763;SDS011;5939;56.522;14.950;2022-10-31T00:59:17;1.83;;;1.60;;
11763;SDS011;5939;56.522;14.950;2022-10-31T01:01:42;1.70;;;1.60;;
11763;SDS011;5939;56.522;14.950;2022-10-31T01:04:08;1.50;;;1.40;;
11763;SDS011;5939;56.522;14.950;2022-10-31T01:06:33;1.47;;;1.37;;
11763;SDS011;5939;56.522;14.950;2022-10-31T01:08:59;1.70;;;1.60;;
11763;SDS011;5939;56.522;14.950;2022-10-31T01:11:24;2.10;;;1.80;;
11763;SDS011;5939;56.522;14.950;2022-10-31T01:13:51;1.90;;;1.67;;
11763;SDS011;5939;56.522;14.950;2022-10-31T01:16:18;1.70;;;1.60;;
11763;SDS011;5939;56.522;14.950;2022-10-31T01:18:46;1.87;;;1.53;;
11763;SDS011;5939;56.522;14.950;2022-10-31T01:21:13;2.00;;;1.80;;
11763;SDS011;5939;56.522;14.950;2022-10-31T01:23:44;1.80;;;1.50;;
11763;SDS011;5939;56.522;14.950;2022-10-31T01:26:17;3.00;;;1.90;;
11763;SDS011;5939;56.522;14.950;2022-10-31T01:28:48;2.47;;;1.97;;
11763;SDS011;5939;56.522;14.950;2022-10-31T01:31:17;3.43;;;1.90;;
11763;SDS011;5939;56.522;14.950;2022-10-31T01:33:44;2.43;;;1.93;;
11763;SDS011;5939;56.522;14.950;2022-10-31T01:36:11;2.17;;;1.80;;
11763;SDS011;5939;56.522;14.950;2022-10-31T01:39:07;2.30;;;1.50;;
11763;SDS011;5939;56.522;14.950;2022-10-31T01:41:36;2.20;;;2.00;;
11763;SDS011;5939;56.522;14.950;2022-10-31T01:46:54;2.63;;;1.77;;
11763;SDS011;5939;56.522;14.950;2022-10-31T01:49:24;2.83;;;1.83;;
11763;SDS011;5939;56.522;14.950;2022-10-31T01:51:54;4.93;;;2.60;;
11763;SDS011;5939;56.522;14.950;2022-10-31T01:54:25;2.47;;;1.93;;
11763;SDS011;5939;56.522;14.950;2022-10-31T01:56:55;3.47;;;2.33;;
11763;SDS011;5939;56.522;14.950;2022-10-31T01:59:23;3.00;;;1.93;;
11763;SDS011;5939;56.522;14.950;2022-10-31T02:01:53;4.50;;;2.27;;
11763;SDS011;5939;56.522;14.950;2022-10-31T02:04:19;3.00;;;2.17;;
11763;SDS011;5939;56.522;14.950;2022-10-31T02:06:53;4.17;;;1.63;;
11763;SDS011;5939;56.522;14.950;2022-10-31T02:09:22;4.47;;;2.30;;
11763;SDS011;5939;56.522;14.950;2022-10-31T02:11:52;3.80;;;2.23;;
11763;SDS011;5939;56.522;14.950;2022-10-31T02:14:22;4.47;;;2.33;;
11763;SDS011;5939;56.522;14.950;2022-10-31T02:16:49;4.53;;;2.10;;
11763;SDS011;5939;56.522;14.950;2022-10-31T02:19:18;4.97;;;2.53;;
11763;SDS011;5939;56.522;14.950;2022-10-31T02:21:54;5.00;;;2.17;;
11763;SDS011;5939;56.522;14.950;2022-10-31T02:32:31;3.37;;;2.30;;
11763;SDS011;5939;56.522;14.950;2022-10-31T02:46:19;3.90;;;2.40;;
11763;SDS011;5939;56.522;14.950;2022-10-31T02:48:51;3.73;;;2.40;;
11763;SDS011;5939;56.522;14.950;2022-10-31T02:51:20;4.57;;;2.00;;
11763;SDS011;5939;56.522;14.950;2022-10-31T02:53:46;4.50;;;2.40;;
11763;SDS011;5939;56.522;14.950;2022-10-31T02:56:13;2.83;;;2.10;;
11763;SDS011;5939;56.522;14.950;2022-10-31T02:58:50;3.77;;;2.20;;
11763;SDS011;5939;56.522;14.950;2022-10-31T03:12:02;5.83;;;2.10;;
11763;SDS011;5939;56.522;14.950;2022-10-31T03:14:39;2.63;;;2.00;;
11763;SDS011;5939;56.522;14.950;2022-10-31T03:17:20;3.20;;;2.10;;
11763;SDS011;5939;56.522;14.950;2022-10-31T03:19:52;4.17;;;2.37;;
11763;SDS011;5939;56.522;14.950;2022-10-31T03:22:21;3.13;;;2.30;;
11763;SDS011;5939;56.522;14.950;2022-10-31T03:24:53;3.43;;;2.00;;
11763;SDS011;5939;56.522;14.950;2022-10-31T03:27:24;2.87;;;1.90;;
11763;SDS011;5939;56.522;14.950;2022-10-31T03:29:54;3.10;;;2.53;;
11763;SDS011;5939;56.522;14.950;2022-10-31T03:32:24;3.10;;;1.90;;
11763;SDS011;5939;56.522;14.950;2022-10-31T03:34:54;2.57;;;2.00;;
11763;SDS011;5939;56.522;14.950;2022-10-31T03:37:22;3.50;;;2.40;;
11763;SDS011;5939;56.522;14.950;2022-10-31T03:39:51;5.73;;;2.50;;
11763;SDS011;5939;56.522;14.950;2022-10-31T03:42:21;3.27;;;2.60;;
11763;SDS011;5939;56.522;14.950;2022-10-31T03:44:56;3.40;;;1.90;;
11763;SDS011;5939;56.522;14.950;2022-10-31T03:47:25;3.43;;;2.30;;
11763;SDS011;5939;56.522;14.950;2022-10-31T03:49:51;3.93;;;2.50;;
11763;SDS011;5939;56.522;14.950;2022-10-31T03:54:57;5.20;;;2.67;;
11763;SDS011;5939;56.522;14.950;2022-10-31T03:57:31;4.00;;;2.20;;
11763;SDS011;5939;56.522;14.950;2022-10-31T04:00:05;4.57;;;2.00;;
11763;SDS011;5939;56.522;14.950;2022-10-31T04:02:33;4.07;;;2.43;;
11763;SDS011;5939;56.522;14.950;2022-10-31T04:05:03;2.93;;;2.00;;
11763;SDS011;5939;56.522;14.950;2022-10-31T04:07:32;4.33;;;2.27;;
11763;SDS011;5939;56.522;14.950;2022-10-31T04:10:02;2.60;;;1.90;;
11763;SDS011;5939;56.522;14.950;2022-10-31T04:12:31;4.80;;;2.57;;
11763;SDS011;5939;56.522;14.950;2022-10-31T04:14:59;3.27;;;2.13;;
11763;SDS011;5939;56.522;14.950;2022-10-31T04:17:29;4.00;;;2.80;;
11763;SDS011;5939;56.522;14.950;2022-10-31T04:20:00;3.40;;;2.13;;
11763;SDS011;5939;56.522;14.950;2022-10-31T04:22:26;4.30;;;2.30;;
11763;SDS011;5939;56.522;14.950;2022-10-31T04:24:51;3.73;;;2.50;;
11763;SDS011;5939;56.522;14.950;2022-10-31T04:27:17;3.27;;;2.43;;
11763;SDS011;5939;56.522;14.950;2022-10-31T04:29:43;2.70;;;2.00;;
11763;SDS011;5939;56.522;14.950;2022-10-31T04:32:08;2.50;;;2.00;;
11763;SDS011;5939;56.522;14.950;2022-10-31T04:34:34;2.37;;;2.10;;
11763;SDS011;5939;56.522;14.950;2022-10-31T04:37:00;3.10;;;2.10;;
11763;SDS011;5939;56.522;14.950;2022-10-31T04:39:25;2.63;;;2.33;;
11763;SDS011;5939;56.522;14.950;2022-10-31T04:41:51;3.53;;;2.43;;
11763;SDS011;5939;56.522;14.950;2022-10-31T04:44:16;3.53;;;2.80;;
11763;SDS011;5939;56.522;14.950;2022-10-31T04:46:42;3.40;;;2.27;;
11763;SDS011;5939;56.522;14.950;2022-10-31T04:49:08;2.67;;;2.20;;
11763;SDS011;5939;56.522;14.950;2022-10-31T04:51:33;3.83;;;2.67;;
11763;SDS011;5939;56.522;14.950;2022-10-31T04:53:59;2.80;;;2.13;;
11763;SDS011;5939;56.522;14.950;2022-10-31T04:56:24;3.50;;;2.23;;
11763;SDS011;5939;56.522;14.950;2022-10-31T04:58:50;2.63;;;2.03;;
11763;SDS011;5939;56.522;14.950;2022-10-31T05:01:16;2.47;;;2.00;;
11763;SDS011;5939;56.522;14.950;2022-10-31T05:03:41;3.73;;;2.50;;
11763;SDS011;5939;56.522;14.950;2022-10-31T05:06:07;3.37;;;2.13;;
11763;SDS011;5939;56.522;14.950;2022-10-31T05:08:33;3.40;;;2.33;;
11763;SDS011;5939;56.522;14.950;2022-10-31T05:10:59;4.07;;;2.37;;
11763;SDS011;5939;56.522;14.950;2022-10-31T05:13:26;3.17;;;2.37;;
11763;SDS011;5939;56.522;14.950;2022-10-31T05:15:52;2.60;;;2.10;;
11763;SDS011;5939;56.522;14.950;2022-10-31T05:18:18;3.97;;;3.10;;
11763;SDS011;5939;56.522;14.950;2022-10-31T05:20:43;3.57;;;2.83;;
11763;SDS011;5939;56.522;14.950;2022-10-31T05:23:09;2.73;;;2.33;;
11763;SDS011;5939;56.522;14.950;2022-10-31T05:25:35;3.10;;;2.40;;
11763;SDS011;5939;56.522;14.950;2022-10-31T05:28:00;4.40;;;2.70;;
11763;SDS011;5939;56.522;14.950;2022-10-31T05:30:27;3.20;;;2.20;;
11763;SDS011;5939;56.522;14.950;2022-10-31T05:32:54;3.10;;;2.43;;
11763;SDS011;5939;56.522;14.950;2022-10-31T05:35:30;4.23;;;2.57;;
11763;SDS011;5939;56.522;14.950;2022-10-31T05:37:57;4.23;;;2.70;;
11763;SDS011;5939;56.522;14.950;2022-10-31T05:40:24;3.23;;;2.40;;
11763;SDS011;5939;56.522;14.950;2022-10-31T05:42:51;3.57;;;2.50;;
11763;SDS011;5939;56.522;14.950;2022-10-31T05:45:18;3.07;;;2.77;;
11763;SDS011;5939;56.522;14.950;2022-10-31T05:47:51;4.50;;;2.80;;
11763;SDS011;5939;56.522;14.950;2022-10-31T05:50:18;2.57;;;2.30;;
11763;SDS011;5939;56.522;14.950;2022-10-31T05:52:44;4.40;;;2.63;;
11763;SDS011;5939;56.522;14.950;2022-10-31T05:55:10;2.90;;;2.60;;
11763;SDS011;5939;56.522;14.950;2022-10-31T05:57:35;3.40;;;2.93;;
11763;SDS011;5939;56.522;14.950;2022-10-31T06:00:01;2.83;;;2.50;;
11763;SDS011;5939;56.522;14.950;2022-10-31T06:02:28;2.73;;;2.40;;
11763;SDS011;5939;56.522;14.950;2022-10-31T06:04:57;3.60;;;2.50;;
11763;SDS011;5939;56.522;14.950;2022-10-31T06:07:22;3.13;;;2.53;;
11763;SDS011;5939;56.522;14.950;2022-10-31T06:09:48;3.00;;;2.50;;
11763;SDS011;5939;56.522;14.950;2022-10-31T06:12:14;3.27;;;2.77;;
11763;SDS011;5939;56.522;14.950;2022-10-31T06:14:39;2.70;;;2.27;;
11763;SDS011;5939;56.522;14.950;2022-10-31T06:17:05;2.67;;;2.20;;
11763;SDS011;5939;56.522;14.950;2022-10-31T06:19:30;3.13;;;2.50;;
11763;SDS011;5939;56.522;14.950;2022-10-31T06:21:56;3.17;;;2.20;;
11763;SDS011;5939;56.522;14.950;2022-10-31T06:24:21;2.63;;;2.27;;
11763;SDS011;5939;56.522;14.950;2022-10-31T06:26:47;4.30;;;2.53;;
11763;SDS011;5939;56.522;14.950;2022-10-31T06:29:13;3.83;;;2.80;;
11763;SDS011;5939;56.522;14.950;2022-10-31T06:31:38;2.67;;;2.37;;
11763;SDS011;5939;56.522;14.950;2022-10-31T06:34:04;4.33;;;2.50;;
11763;SDS011;5939;56.522;14.950;2022-10-31T06:36:29;3.97;;;2.47;;
11763;SDS011;5939;56.522;14.950;2022-10-31T06:38:55;3.80;;;2.57;;
11763;SDS011;5939;56.522;14.950;2022-10-31T06:41:21;2.33;;;2.10;;
11763;SDS011;5939;56.522;14.950;2022-10-31T06:43:46;3.30;;;2.33;;
11763;SDS011;5939;56.522;14.950;2022-10-31T06:46:12;3.23;;;2.50;;
11763;SDS011;5939;56.522;14.950;2022-10-31T06:48:39;2.40;;;2.20;;
11763;SDS011;5939;56.522;14.950;2022-10-31T06:51:06;2.40;;;2.13;;
11763;SDS011;5939;56.522;14.950;2022-10-31T06:53:31;2.40;;;2.20;;
11763;SDS011;5939;56.522;14.950;2022-10-31T06:55:57;2.80;;;2.50;;
11763;SDS011;5939;56.522;14.950;2022-10-31T06:58:23;2.20;;;1.93;;
11763;SDS011;5939;56.522;14.950;2022-10-31T07:00:48;3.00;;;1.93;;
11763;SDS011;5939;56.522;14.950;2022-10-31T07:03:14;3.07;;;2.50;;
11763;SDS011;5939;56.522;14.950;2022-10-31T07:05:41;2.87;;;1.97;;
11763;SDS011;5939;56.522;14.950;2022-10-31T07:08:08;2.77;;;1.97;;
11763;SDS011;5939;56.522;14.950;2022-10-31T07:10:36;2.47;;;2.20;;
11763;SDS011;5939;56.522;14.950;2022-10-31T07:13:04;2.60;;;2.20;;
11763;SDS011;5939;56.522;14.950;2022-10-31T07:15:35;2.50;;;1.93;;
11763;SDS011;5939;56.522;14.950;2022-10-31T07:18:05;2.43;;;2.07;;
11763;SDS011;5939;56.522;14.950;2022-10-31T07:20:32;2.10;;;1.80;;
11763;SDS011;5939;56.522;14.950;2022-10-31T07:22:58;2.97;;;1.90;;
11763;SDS011;5939;56.522;14.950;2022-10-31T07:25:25;2.37;;;1.97;;
11763;SDS011;5939;56.522;14.950;2022-10-31T07:27:51;2.17;;;1.80;;
11763;SDS011;5939;56.522;14.950;2022-10-31T07:30:17;2.03;;;1.90;;
11763;SDS011;5939;56.522;14.950;2022-10-31T07:32:50;2.50;;;2.30;;
11763;SDS011;5939;56.522;14.950;2022-10-31T07:35:17;2.70;;;2.07;;
11763;SDS011;5939;56.522;14.950;2022-10-31T07:37:50;2.27;;;1.83;;
11763;SDS011;5939;56.522;14.950;2022-10-31T07:40:16;2.40;;;2.20;;
11763;SDS011;5939;56.522;14.950;2022-10-31T07:42:44;2.37;;;2.00;;
11763;SDS011;5939;56.522;14.950;2022-10-31T07:45:11;2.70;;;2.20;;
11763;SDS011;5939;56.522;14.950;2022-10-31T07:47:39;2.77;;;1.97;;
11763;SDS011;5939;56.522;14.950;2022-10-31T07:50:04;2.63;;;2.03;;
11763;SDS011;5939;56.522;14.950;2022-10-31T07:52:30;2.67;;;2.10;;
11763;SDS011;5939;56.522;14.950;2022-10-31T07:54:56;2.47;;;2.20;;
11763;SDS011;5939;56.522;14.950;2022-10-31T07:57:22;2.50;;;2.30;;
11763;SDS011;5939;56.522;14.950;2022-10-31T07:59:47;2.33;;;1.93;;
11763;SDS011;5939;56.522;14.950;2022-10-31T08:02:13;2.30;;;2.10;;
11763;SDS011;5939;56.522;14.950;2022-10-31T08:04:38;2.20;;;2.00;;
11763;SDS011;5939;56.522;14.950;2022-10-31T08:07:04;3.83;;;2.60;;
11763;SDS011;5939;56.522;14.950;2022-10-31T08:09:30;3.93;;;2.40;;
11763;SDS011;5939;56.522;14.950;2022-10-31T08:11:55;2.70;;;2.20;;
11763;SDS011;5939;56.522;14.950;2022-10-31T08:14:21;2.83;;;2.20;;
11763;SDS011;5939;56.522;14.950;2022-10-31T08:16:47;2.87;;;1.93;;
11763;SDS011;5939;56.522;14.950;2022-10-31T08:19:13;2.83;;;2.47;;
11763;SDS011;5939;56.522;14.950;2022-10-31T08:21:38;3.37;;;2.30;;
11763;SDS011;5939;56.522;14.950;2022-10-31T08:24:04;2.80;;;2.23;;
11763;SDS011;5939;56.522;14.950;2022-10-31T08:26:30;2.67;;;2.30;;
11763;SDS011;5939;56.522;14.950;2022-10-31T08:28:56;3.20;;;2.73;;
11763;SDS011;5939;56.522;14.950;2022-10-31T08:31:22;2.50;;;2.30;;
11763;SDS011;5939;56.522;14.950;2022-10-31T08:33:48;2.23;;;2.00;;
11763;SDS011;5939;56.522;14.950;2022-10-31T08:36:14;2.53;;;2.20;;
11763;SDS011;5939;56.522;14.950;2022-10-31T08:38:40;2.93;;;2.30;;
11763;SDS011;5939;56.522;14.950;2022-10-31T08:41:05;2.43;;;2.23;;
11763;SDS011;5939;56.522;14.950;2022-10-31T08:43:31;2.20;;;2.00;;
11763;SDS011;5939;56.522;14.950;2022-10-31T08:45:56;7.63;;;2.40;;
11763;SDS011;5939;56.522;14.950;2022-10-31T08:48:22;2.50;;;2.27;;
11763;SDS011;5939;56.522;14.950;2022-10-31T08:50:47;2.47;;;1.97;;
11763;SDS011;5939;56.522;14.950;2022-10-31T08:53:14;5.37;;;2.70;;
11763;SDS011;5939;56.522;14.950;2022-10-31T08:55:42;3.57;;;2.70;;
11763;SDS011;5939;56.522;14.950;2022-10-31T08:58:12;3.77;;;2.40;;
11763;SDS011;5939;56.522;14.950;2022-10-31T09:00:42;3.67;;;3.00;;
11763;SDS011;5939;56.522;14.950;2022-10-31T09:03:12;3.40;;;2.80;;
11763;SDS011;5939;56.522;14.950;2022-10-31T09:05:39;3.83;;;3.13;;
11763;SDS011;5939;56.522;14.950;2022-10-31T09:08:06;4.07;;;3.37;;
11763;SDS011;5939;56.522;14.950;2022-10-31T09:10:33;6.30;;;2.90;;
11763;SDS011;5939;56.522;14.950;2022-10-31T09:13:00;4.90;;;2.83;;
11763;SDS011;5939;56.522;14.950;2022-10-31T09:15:32;3.13;;;2.43;;
11763;SDS011;5939;56.522;14.950;2022-10-31T09:17:59;2.80;;;2.43;;
11763;SDS011;5939;56.522;14.950;2022-10-31T09:20:25;3.30;;;2.70;;
11763;SDS011;5939;56.522;14.950;2022-10-31T09:22:55;3.10;;;2.80;;
11763;SDS011;5939;56.522;14.950;2022-10-31T09:25:22;3.03;;;2.53;;
11763;SDS011;5939;56.522;14.950;2022-10-31T09:27:47;2.83;;;2.47;;
11763;SDS011;5939;56.522;14.950;2022-10-31T09:30:13;3.03;;;2.73;;
11763;SDS011;5939;56.522;14.950;2022-10-31T09:32:39;2.90;;;2.50;;
11763;SDS011;5939;56.522;14.950;2022-10-31T09:35:04;3.90;;;2.87;;
11763;SDS011;5939;56.522;14.950;2022-10-31T09:37:30;3.33;;;2.67;;
11763;SDS011;5939;56.522;14.950;2022-10-31T09:39:56;3.40;;;2.90;;
11763;SDS011;5939;56.522;14.950;2022-10-31T09:45:11;3.30;;;2.53;;
11763;SDS011;5939;56.522;14.950;2022-10-31T09:50:40;3.40;;;2.53;;
11763;SDS011;5939;56.522;14.950;2022-10-31T09:53:11;2.80;;;2.50;;
11763;SDS011;5939;56.522;14.950;2022-10-31T09:55:48;3.23;;;2.67;;
11763;SDS011;5939;56.522;14.950;2022-10-31T09:58:26;3.33;;;2.90;;
11763;SDS011;5939;56.522;14.950;2022-10-31T10:00:54;3.77;;;2.67;;
11763;SDS011;5939;56.522;14.950;2022-10-31T10:03:44;3.50;;;2.97;;
11763;SDS011;5939;56.522;14.950;2022-10-31T10:06:17;3.10;;;2.50;;
11763;SDS011;5939;56.522;14.950;2022-10-31T10:08:46;3.70;;;2.67;;
11763;SDS011;5939;56.522;14.950;2022-10-31T10:11:32;3.50;;;2.87;;
11763;SDS011;5939;56.522;14.950;2022-10-31T10:14:13;5.00;;;3.00;;
11763;SDS011;5939;56.522;14.950;2022-10-31T10:20:01;4.63;;;3.13;;
11763;SDS011;5939;56.522;14.950;2022-10-31T10:32:56;3.30;;;2.80;;
11763;SDS011;5939;56.522;14.950;2022-10-31T10:36:25;2.93;;;2.63;;
11763;SDS011;5939;56.522;14.950;2022-10-31T10:38:34;4.93;;;2.60;;
11763;SDS011;5939;56.522;14.950;2022-10-31T10:41:02;3.03;;;2.50;;
11763;SDS011;5939;56.522;14.950;2022-10-31T10:43:37;3.10;;;2.67;;
11763;SDS011;5939;56.522;14.950;2022-10-31T10:49:25;3.10;;;2.63;;
11763;SDS011;5939;56.522;14.950;2022-10-31T11:00:19;3.43;;;2.67;;
11763;SDS011;5939;56.522;14.950;2022-10-31T11:02:50;3.80;;;2.70;;
11763;SDS011;5939;56.522;14.950;2022-10-31T11:08:11;3.83;;;2.90;;
11763;SDS011;5939;56.522;14.950;2022-10-31T11:10:59;3.70;;;2.80;;
11763;SDS011;5939;56.522;14.950;2022-10-31T11:13:33;3.70;;;2.90;;
11763;SDS011;5939;56.522;14.950;2022-10-31T11:16:00;3.47;;;2.53;;
11763;SDS011;5939;56.522;14.950;2022-10-31T11:18:42;2.90;;;2.60;;
11763;SDS011;5939;56.522;14.950;2022-10-31T11:21:26;3.33;;;3.03;;
11763;SDS011;5939;56.522;14.950;2022-10-31T11:26:35;3.10;;;2.57;;
11763;SDS011;5939;56.522;14.950;2022-10-31T11:29:09;3.67;;;2.70;;
11763;SDS011;5939;56.522;14.950;2022-10-31T11:31:38;3.70;;;3.00;;
11763;SDS011;5939;56.522;14.950;2022-10-31T11:34:06;3.23;;;2.93;;
11763;SDS011;5939;56.522;14.950;2022-10-31T11:36:39;3.13;;;2.63;;
11763;SDS011;5939;56.522;14.950;2022-10-31T11:39:14;4.17;;;2.90;;
11763;SDS011;5939;56.522;14.950;2022-10-31T11:41:44;3.97;;;2.70;;
11763;SDS011;5939;56.522;14.950;2022-10-31T11:47:12;3.90;;;2.83;;
11763;SDS011;5939;56.522;14.950;2022-10-31T11:49:39;3.30;;;3.00;;
11763;SDS011;5939;56.522;14.950;2022-10-31T11:52:08;3.23;;;2.53;;
11763;SDS011;5939;56.522;14.950;2022-10-31T11:54:47;3.07;;;2.77;;
11763;SDS011;5939;56.522;14.950;2022-10-31T11:57:31;4.07;;;3.00;;
11763;SDS011;5939;56.522;14.950;2022-10-31T12:00:17;3.60;;;2.70;;
11763;SDS011;5939;56.522;14.950;2022-10-31T12:02:48;3.67;;;2.60;;
11763;SDS011;5939;56.522;14.950;2022-10-31T12:05:18;3.93;;;2.80;;
11763;SDS011;5939;56.522;14.950;2022-10-31T12:07:48;3.30;;;3.00;;
11763;SDS011;5939;56.522;14.950;2022-10-31T12:10:14;2.90;;;2.60;;
11763;SDS011;5939;56.522;14.950;2022-10-31T12:15:27;3.10;;;2.80;;
11763;SDS011;5939;56.522;14.950;2022-10-31T12:35:16;4.67;;;3.27;;
11763;SDS011;5939;56.522;14.950;2022-10-31T12:46:25;3.77;;;3.20;;
11763;SDS011;5939;56.522;14.950;2022-10-31T12:49:27;3.27;;;2.90;;
11763;SDS011;5939;56.522;14.950;2022-10-31T12:55:03;4.83;;;3.27;;
11763;SDS011;5939;56.522;14.950;2022-10-31T12:57:53;4.30;;;2.87;;
11763;SDS011;5939;56.522;14.950;2022-10-31T13:00:25;3.07;;;2.77;;
11763;SDS011;5939;56.522;14.950;2022-10-31T13:02:59;6.50;;;3.43;;
11763;SDS011;5939;56.522;14.950;2022-10-31T13:05:43;4.47;;;3.23;;
11763;SDS011;5939;56.522;14.950;2022-10-31T13:09:13;5.20;;;3.03;;
11763;SDS011;5939;56.522;14.950;2022-10-31T13:11:26;3.40;;;3.10;;
11763;SDS011;5939;56.522;14.950;2022-10-31T13:14:39;3.80;;;3.00;;
11763;SDS011;5939;56.522;14.950;2022-10-31T13:17:00;2.87;;;2.60;;
11763;SDS011;5939;56.522;14.950;2022-10-31T13:19:34;4.97;;;2.93;;
11763;SDS011;5939;56.522;14.950;2022-10-31T13:22:22;3.33;;;2.90;;
11763;SDS011;5939;56.522;14.950;2022-10-31T13:24:57;3.80;;;3.13;;
11763;SDS011;5939;56.522;14.950;2022-10-31T13:27:41;3.30;;;2.70;;
11763;SDS011;5939;56.522;14.950;2022-10-31T13:30:31;3.53;;;2.80;;
11763;SDS011;5939;56.522;14.950;2022-10-31T13:33:04;3.40;;;3.10;;
11763;SDS011;5939;56.522;14.950;2022-10-31T13:46:33;3.17;;;2.83;;
11763;SDS011;5939;56.522;14.950;2022-10-31T13:49:01;3.10;;;2.80;;
11763;SDS011;5939;56.522;14.950;2022-10-31T13:51:29;4.30;;;3.30;;
11763;SDS011;5939;56.522;14.950;2022-10-31T13:54:01;3.20;;;2.90;;
11763;SDS011;5939;56.522;14.950;2022-10-31T13:56:33;3.50;;;2.90;;
11763;SDS011;5939;56.522;14.950;2022-10-31T14:01:33;4.30;;;2.90;;
11763;SDS011;5939;56.522;14.950;2022-10-31T14:04:05;3.60;;;2.90;;
11763;SDS011;5939;56.522;14.950;2022-10-31T14:09:31;3.43;;;3.10;;
11763;SDS011;5939;56.522;14.950;2022-10-31T14:12:03;3.73;;;2.93;;
11763;SDS011;5939;56.522;14.950;2022-10-31T14:14:45;3.43;;;2.77;;
11763;SDS011;5939;56.522;14.950;2022-10-31T14:17:23;4.93;;;3.47;;
11763;SDS011;5939;56.522;14.950;2022-10-31T14:22:46;3.43;;;3.13;;
11763;SDS011;5939;56.522;14.950;2022-10-31T14:27:58;3.50;;;2.87;;
11763;SDS011;5939;56.522;14.950;2022-10-31T14:30:54;4.30;;;3.00;;
11763;SDS011;5939;56.522;14.950;2022-10-31T14:33:22;3.00;;;2.70;;
11763;SDS011;5939;56.522;14.950;2022-10-31T14:35:55;4.23;;;3.10;;
11763;SDS011;5939;56.522;14.950;2022-10-31T14:38:32;5.13;;;3.07;;
11763;SDS011;5939;56.522;14.950;2022-10-31T14:51:58;4.40;;;3.17;;
11763;SDS011;5939;56.522;14.950;2022-10-31T14:54:45;5.17;;;3.00;;
11763;SDS011;5939;56.522;14.950;2022-10-31T15:00:21;4.90;;;3.10;;
11763;SDS011;5939;56.522;14.950;2022-10-31T15:02:55;5.17;;;3.17;;
11763;SDS011;5939;56.522;14.950;2022-10-31T15:05:29;2.87;;;2.60;;
11763;SDS011;5939;56.522;14.950;2022-10-31T15:07:57;4.07;;;2.93;;
11763;SDS011;5939;56.522;14.950;2022-10-31T15:10:30;3.77;;;2.90;;
11763;SDS011;5939;56.522;14.950;2022-10-31T15:13:19;4.67;;;3.23;;
11763;SDS011;5939;56.522;14.950;2022-10-31T15:15:47;4.20;;;3.30;;
11763;SDS011;5939;56.522;14.950;2022-10-31T15:18:17;3.23;;;2.77;;
11763;SDS011;5939;56.522;14.950;2022-10-31T15:20:46;3.50;;;3.00;;
11763;SDS011;5939;56.522;14.950;2022-10-31T15:23:16;4.13;;;3.00;;
11763;SDS011;5939;56.522;14.950;2022-10-31T15:25:47;2.80;;;2.60;;
11763;SDS011;5939;56.522;14.950;2022-10-31T15:28:14;2.50;;;2.30;;
11763;SDS011;5939;56.522;14.950;2022-10-31T15:30:52;3.67;;;2.70;;
11763;SDS011;5939;56.522;14.950;2022-10-31T15:33:20;3.80;;;2.70;;
11763;SDS011;5939;56.522;14.950;2022-10-31T15:35:59;3.90;;;2.80;;
11763;SDS011;5939;56.522;14.950;2022-10-31T15:38:26;3.60;;;2.80;;
11763;SDS011;5939;56.522;14.950;2022-10-31T15:41:03;2.83;;;2.43;;
11763;SDS011;5939;56.522;14.950;2022-10-31T15:43:43;3.33;;;2.70;;
11763;SDS011;5939;56.522;14.950;2022-10-31T15:46:10;3.43;;;2.60;;
11763;SDS011;5939;56.522;14.950;2022-10-31T15:48:35;3.47;;;2.63;;
11763;SDS011;5939;56.522;14.950;2022-10-31T15:51:03;3.93;;;3.07;;
11763;SDS011;5939;56.522;14.950;2022-10-31T15:53:35;3.37;;;2.40;;
11763;SDS011;5939;56.522;14.950;2022-10-31T15:56:08;4.03;;;2.83;;
11763;SDS011;5939;56.522;14.950;2022-10-31T15:58:43;3.67;;;3.17;;
11763;SDS011;5939;56.522;14.950;2022-10-31T16:01:28;3.80;;;2.80;;
11763;SDS011;5939;56.522;14.950;2022-10-31T16:04:03;3.03;;;2.67;;
11763;SDS011;5939;56.522;14.950;2022-10-31T16:06:35;2.80;;;2.50;;
11763;SDS011;5939;56.522;14.950;2022-10-31T16:09:01;3.27;;;2.67;;
11763;SDS011;5939;56.522;14.950;2022-10-31T16:11:37;4.13;;;2.80;;
11763;SDS011;5939;56.522;14.950;2022-10-31T16:14:21;3.60;;;2.80;;
11763;SDS011;5939;56.522;14.950;2022-10-31T16:16:50;2.90;;;2.30;;
11763;SDS011;5939;56.522;14.950;2022-10-31T16:19:46;3.03;;;2.60;;
11763;SDS011;5939;56.522;14.950;2022-10-31T16:22:14;3.80;;;2.70;;
11763;SDS011;5939;56.522;14.950;2022-10-31T16:24:51;3.80;;;2.90;;
11763;SDS011;5939;56.522;14.950;2022-10-31T16:27:25;3.13;;;2.80;;
11763;SDS011;5939;56.522;14.950;2022-10-31T16:29:54;3.43;;;3.03;;
11763;SDS011;5939;56.522;14.950;2022-10-31T16:32:31;4.37;;;2.97;;
11763;SDS011;5939;56.522;14.950;2022-10-31T16:35:38;3.37;;;2.70;;
11763;SDS011;5939;56.522;14.950;2022-10-31T16:38:04;3.47;;;2.97;;
11763;SDS011;5939;56.522;14.950;2022-10-31T16:40:30;2.77;;;2.50;;
11763;SDS011;5939;56.522;14.950;2022-10-31T16:42:57;2.87;;;2.50;;
11763;SDS011;5939;56.522;14.950;2022-10-31T16:45:25;3.50;;;2.87;;
11763;SDS011;5939;56.522;14.950;2022-10-31T16:47:52;3.60;;;2.50;;
11763;SDS011;5939;56.522;14.950;2022-10-31T16:50:23;3.87;;;2.20;;
11763;SDS011;5939;56.522;14.950;2022-10-31T16:52:49;2.57;;;2.30;;
11763;SDS011;5939;56.522;14.950;2022-10-31T16:55:16;4.10;;;2.50;;
11763;SDS011;5939;56.522;14.950;2022-10-31T16:57:44;2.83;;;2.40;;
11763;SDS011;5939;56.522;14.950;2022-10-31T17:00:21;2.67;;;2.47;;
11763;SDS011;5939;56.522;14.950;2022-10-31T17:02:51;3.87;;;2.80;;
11763;SDS011;5939;56.522;14.950;2022-10-31T17:05:19;3.03;;;2.73;;
11763;SDS011;5939;56.522;14.950;2022-10-31T17:07:45;2.87;;;2.63;;
11763;SDS011;5939;56.522;14.950;2022-10-31T17:10:12;2.80;;;2.50;;
11763;SDS011;5939;56.522;14.950;2022-10-31T17:12:40;2.93;;;2.60;;
11763;SDS011;5939;56.522;14.950;2022-10-31T17:15:21;2.53;;;2.23;;
11763;SDS011;5939;56.522;14.950;2022-10-31T17:17:48;3.17;;;2.87;;
11763;SDS011;5939;56.522;14.950;2022-10-31T17:20:19;3.60;;;2.60;;
11763;SDS011;5939;56.522;14.950;2022-10-31T17:22:44;3.70;;;2.47;;
11763;SDS011;5939;56.522;14.950;2022-10-31T17:25:12;4.03;;;2.87;;
11763;SDS011;5939;56.522;14.950;2022-10-31T17:27:47;2.90;;;2.60;;